Terminal Aerodrome Forecast
Issued by NWS Sterling, VA

Current Version | Previous Version | Graphics & Text | Print | Product List | Glossary On
Versions: 1 2 3 4 5 6 7 8 9 10 11 12 13
487
FTUS41 KLWX 252321
TAFMRB
TAF
KMRB 252321Z 2600/2624 25005KT P6SM VCSH SCT060 SCT200
     FM260300 28004KT P6SM BKN060
     FM261500 31005KT P6SM SCT080=

USA.gov is the U.S. government's official web portal to all federal, state and local government web resources and services.